Oneida, Ohio
Current Conditions -  °F | °C
As of 10:53 AM on Wednesday 28 Jan 2015 (Local Time) from KPHD Reporting Station
Clear Clear  
Wind Chill: 16°   Ceiling: Unl
Heat Index: 16°   Visibility: 8mi
Dew Point: 11°   Wind: 0mph
Humidity: 81%   Direction: NA
Pressure: 30.38"   Gusts: NA
Location:  40.6847°N, 81.1826°W
Report Text: KPHD 281553Z AUTO 00000KT 8SM CLR M09/M12 A3038 RMK AO2 SLP304 T10891117
Loading
Personal Weather Stations






























Interactive Weather Map New forecast layout! Learn more

10-Day Weather Forecast

Advertisements
Track Severe Weather on mobile